Results: 2016 Snowy Mountains ITU Cross Triathlon World Championships | 50-54 Male AG
Lake Crackenback, Snowy Mountains , Australia • 19 Nov, 2016
Pos First Name Last Name YOB Country Start
Num
Time Swim T1 Bike T2 Run
1 Ian Martin 1965 AUS 218 02:48:46 00:20:26 00:01:11 01:29:09 00:01:03 00:56:57
2 Peter Walker 1965 AUS 224 02:57:53 00:21:29 00:02:08 01:38:48 00:01:26 00:54:02
3 Philip Cook 1966 AUS 213 03:03:12 00:22:30 00:01:52 01:36:12 00:01:02 01:01:36
4 Bruce Murphy 1964 AUS 221 03:05:19 00:24:39 00:02:02 01:35:25 00:01:23 01:01:50
5 Shane Clapperton 1966 NZL 228 03:06:58 00:26:35 00:01:12 01:40:13 00:01:14 00:57:44
6 David Lembrich 1965 GER 227 03:10:50 00:27:18 00:01:38 01:37:42 00:01:28 01:02:44
7 Tony Williams 1965 AUS 225 03:15:00 00:26:28 00:02:16 01:41:42 00:01:19 01:03:15
8 Stephen Hanlon 1962 AUS 216 03:15:02 00:25:16 00:01:25 01:39:37 00:01:13 01:07:31
9 John Sadler 1962 NZL 230 03:19:15 00:29:39 00:02:45 01:39:46 00:01:31 01:05:34
10 Clive Tucker 1963 AUS 223 03:19:57 00:24:15 00:01:37 01:42:49 00:01:18 01:09:58
11 Dale Thompson 1966 AUS 222 03:25:46 00:24:22 00:01:44 01:46:03 00:01:27 01:12:10
12 Dean Mcmaster 1964 AUS 220 03:32:06 00:27:46 00:01:46 01:50:51 00:01:41 01:10:02
13 Darrin Cronin 1966 AUS 214 03:37:54 00:25:15 00:02:17 01:51:53 00:02:29 01:16:00
14 Robert Ballou 1964 USA 231 03:38:34 00:26:41 00:02:20 01:50:16 00:01:50 01:17:27
15 Jukka Valkonen 1966 USA 235 03:40:18 00:25:44 00:02:26 01:51:11 00:02:40 01:18:17
16 Kerry Baxter 1964 AUS 211 03:41:47 00:26:38 00:02:36 01:46:44 00:02:11 01:23:38
17 Mark Dew 1963 AUS 215 03:52:16 00:27:39 00:02:59 01:58:26 00:02:17 01:20:55
18 Daniel Luhman 1963 USA 234 04:05:13 00:38:49 00:03:18 01:56:12 00:03:15 01:23:39
19 Geoff Breese 1964 AUS 212 04:08:17 00:27:51 00:02:42 02:03:46 00:01:55 01:32:03
20 Andrew Mccracken 1968 AUS 219 04:17:18 00:26:33 00:02:18 02:25:43 00:01:59 01:20:45
21 Ian Henderson 1964 AUS 217 04:52:45 00:35:45 00:03:27 02:33:15 00:02:21 01:37:57
Program notes:

Technical Delegate: Tony Sangster/NZL. Race referee Lyndell Murray/AUS. Competition Jury: Tony Sangster/NZL, Miles Stewart/AUS, Terry Sheldrake/NZL.
Water Temperature 18.5º C. Air Temperature 12.8º C. Wetsuit swim.
Distances: Swim 1500 m (2 laps); Bike 30 km (2 laps); Run 10 km (3 laps).